Capt. Ted — WDD6210 — position and weather

sailwx.info

Track history (hours):
 
Tides and Currents Weather Stations Pressure Air Temp Water Temp Dewpoint Dewpoint Depression Visibility Wind Speed Wind Dir Waves Ship Positions

Capt. Ted

Owner: Salisbury Towing Corporation, Richmond, VA. More information available from US FCC via Universal Licensing System and Coast Guard Vessel Documentation Center.

Last reported at 2018-Feb-22 00:48 UTC. Time now 2018-Feb-24 19:33 UTC.
Position N 38°44' W 076°27'.

Length 32 m; draft 2.8 m.

Type: Tug. MMSI: 367169710.

Date/timePositionNaut miles runAvg speedWind from/ knotsBaromVisibWave heightAir tempDewpointWater temp
2018-Feb-22 00:48N 38°44' W 076°27'2 6.7
2018-Feb-22 00:26N 38°47' W 076°27'3 6.7
2018-Feb-22 00:00N 38°50' W 076°26'3 6.7
2018-Feb-21 23:30N 38°53' W 076°25'3 6.6
2018-Feb-21 23:01N 38°56' W 076°25'4 7.0
2018-Feb-21 22:30N 38°59' W 076°23'4 7.3
2018-Feb-21 22:00N 39°03' W 076°22'4 7.2
2018-Feb-21 21:30N 39°06' W 076°20'20 7.0
2018-Feb-21 18:41N 39°23' W 076°06'1 6.6
2018-Feb-21 18:29N 39°23' W 076°05'3 5.9
2018-Feb-21 18:01N 39°25' W 076°02'3 6.0
2018-Feb-21 17:30N 39°28' W 076°03'3 5.7
2018-Feb-21 17:00N 39°31' W 076°05'3 6.3
2018-Feb-21 16:28N 39°34' W 076°06'1 2.1
2018-Feb-21 16:00N 39°33' W 076°05'1 1.9
2018-Feb-21 15:26N 39°34' W 076°06'0 0.0
2018-Feb-21 15:00N 39°34' W 076°06'0 0.1
2018-Feb-21 14:31N 39°34' W 076°06'0 0.3
2018-Feb-21 14:01N 39°34' W 076°06'0 0.0
2018-Feb-21 13:30N 39°34' W 076°06'0 0.0
2018-Feb-21 13:00N 39°34' W 076°06'0 0.0
2018-Feb-21 12:30N 39°34' W 076°06'0 0.0
2018-Feb-21 12:01N 39°34' W 076°06'0 0.0
2018-Feb-21 11:28N 39°34' W 076°06'0 0.0
2018-Feb-21 11:00N 39°34' W 076°06'0 0.0
2018-Feb-21 10:30N 39°34' W 076°06'0 0.0
2018-Feb-21 10:01N 39°34' W 076°06'0 0.0
2018-Feb-21 09:31N 39°34' W 076°06'0 0.0
2018-Feb-21 09:01N 39°34' W 076°06'0 0.0
2018-Feb-21 08:31N 39°34' W 076°06'0 0.0
2018-Feb-21 08:00N 39°34' W 076°06'0 0.0
2018-Feb-21 07:30N 39°34' W 076°06'0 0.0
2018-Feb-21 07:00N 39°34' W 076°06'0 0.0
2018-Feb-21 06:31N 39°34' W 076°06'0 0.0
2018-Feb-21 06:00N 39°34' W 076°06'0 0.0
2018-Feb-21 05:30N 39°34' W 076°06'0 0.0
2018-Feb-21 05:01N 39°34' W 076°06'0 0.0
2018-Feb-21 04:30N 39°34' W 076°06'0 0.0
2018-Feb-21 04:00N 39°34' W 076°06'0 0.0
2018-Feb-21 03:31N 39°34' W 076°06'0 0.0
2018-Feb-21 03:00N 39°34' W 076°06'0 0.0
2018-Feb-21 02:31N 39°34' W 076°06'0 0.0
2018-Feb-21 01:59N 39°34' W 076°06'0 0.1
2018-Feb-21 01:31N 39°34' W 076°06'2 4.1
2018-Feb-21 01:00N 39°33' W 076°05'4 7.2
2018-Feb-21 00:31N 39°29' W 076°05'3 6.8
2018-Feb-21 00:00N 39°26' W 076°02'4 7.2
2018-Feb-20 23:30N 39°23' W 076°05'4 7.6
2018-Feb-20 23:00N 39°21' W 076°09'4 7.3
2018-Feb-20 22:31N 39°19' W 076°13'12 7.4
2018-Feb-20 20:51N 39°11' W 076°25'2 7.1
2018-Feb-20 20:30N 39°12' W 076°28'1 2.4
2018-Feb-20 20:00N 39°12' W 076°30'4 8.1
2018-Feb-20 19:30N 39°15' W 076°33'2 4.4
2018-Feb-20 19:01N 39°15' W 076°36'1 1.1
2018-Feb-20 18:30N 39°15' W 076°36'4 8.3
2018-Feb-20 18:00N 39°13' W 076°31'2 3.8
2018-Feb-20 17:30N 39°13' W 076°29'1 1.3
2018-Feb-20 17:00N 39°12' W 076°29'4 7.5
2018-Feb-20 16:30N 39°13' W 076°34'0 0.8
2018-Feb-20 16:00N 39°14' W 076°34'0 0.0
2018-Feb-20 15:30N 39°14' W 076°34'0 0.0
2018-Feb-20 15:01N 39°14' W 076°34'0 0.0
2018-Feb-20 14:30N 39°14' W 076°34'0 0.0
2018-Feb-20 14:00N 39°14' W 076°34'1 1.9
2018-Feb-20 13:31N 39°13' W 076°33'3 6.2
2018-Feb-20 13:00N 39°13' W 076°29'0 0.3
2018-Feb-20 12:30N 39°13' W 076°29'3 5.1
2018-Feb-20 12:00N 39°11' W 076°27'3 6.1
2018-Feb-20 11:31N 39°08' W 076°24'3 6.9
2018-Feb-20 11:00N 39°05' W 076°23'4 6.8
2018-Feb-20 10:29N 39°02' W 076°22'3 6.4
2018-Feb-20 10:00N 38°59' W 076°23'3 6.0
2018-Feb-20 09:30N 38°56' W 076°26'3 6.2
2018-Feb-20 09:00N 38°53' W 076°25'3 6.3
2018-Feb-20 08:30N 38°50' W 076°27'3 6.2
2018-Feb-20 08:00N 38°47' W 076°27'40 2.1
2018-Feb-19 13:14N 38°38' W 075°37'0 0.0
2018-Feb-19 12:55N 38°38' W 075°37'0 0.0
2018-Feb-19 12:30N 38°38' W 075°37'0 0.3
2018-Feb-19 11:51N 38°38' W 075°37'0 0.0
2018-Feb-19 11:30N 38°38' W 075°37'0 0.0
2018-Feb-19 10:16N 38°38' W 075°37'  
2018-Feb-17 03:04N 38°45' W 076°27'1 8.3
2018-Feb-17 03:00N 38°46' W 076°27'4 8.2
2018-Feb-17 02:31N 38°49' W 076°26'4 8.1
2018-Feb-17 02:00N 38°53' W 076°25'4 8.0
2018-Feb-17 01:30N 38°57' W 076°24'4 7.7
2018-Feb-17 01:00N 39°01' W 076°22'4 7.2
2018-Feb-17 00:30N 39°04' W 076°21'3 6.7
2018-Feb-17 00:00N 39°08' W 076°20'29 5.6
2018-Feb-16 18:54N 39°34' W 076°06'0 0.0
2018-Feb-16 18:30N 39°34' W 076°06'0 0.0
2018-Feb-16 18:00N 39°34' W 076°06'0 0.0
2018-Feb-16 17:30N 39°34' W 076°06'0 0.1
2018-Feb-16 17:00N 39°34' W 076°06'0 0.2
2018-Feb-16 16:30N 39°34' W 076°06'0 0.0
2018-Feb-16 16:00N 39°34' W 076°06'0 0.0
2018-Feb-16 15:30N 39°34' W 076°06'0 0.0
2018-Feb-16 15:00N 39°34' W 076°06'0 0.0
2018-Feb-16 14:30N 39°34' W 076°06'0 0.0
2018-Feb-16 14:00N 39°34' W 076°06'0 0.0
2018-Feb-16 13:31N 39°34' W 076°06'0 0.0
2018-Feb-16 13:00N 39°34' W 076°06'0 0.0
2018-Feb-16 12:31N 39°34' W 076°06'0 0.0
2018-Feb-16 12:00N 39°34' W 076°06'0 0.0
2018-Feb-16 11:31N 39°34' W 076°06'0 0.0
2018-Feb-16 11:01N 39°34' W 076°06'0 0.0
2018-Feb-16 10:31N 39°34' W 076°06'0 0.0
2018-Feb-16 10:00N 39°34' W 076°06'0 0.0
2018-Feb-16 09:31N 39°34' W 076°06'0 0.0
2018-Feb-16 08:59N 39°34' W 076°06'0 0.0
2018-Feb-16 08:30N 39°34' W 076°06'0 0.0
2018-Feb-16 08:00N 39°34' W 076°06'0 0.0
2018-Feb-16 07:30N 39°34' W 076°06'0 0.0
2018-Feb-16 07:01N 39°34' W 076°06'0 0.0
2018-Feb-16 06:31N 39°34' W 076°06'0 0.0
2018-Feb-16 06:00N 39°34' W 076°06'0 0.0
2018-Feb-16 05:30N 39°34' W 076°06'0 0.0
2018-Feb-16 05:01N 39°34' W 076°06'0 0.0
2018-Feb-16 04:30N 39°34' W 076°06'0 0.0
2018-Feb-16 04:01N 39°34' W 076°06'0 0.0
2018-Feb-16 03:31N 39°34' W 076°06'0 0.0
2018-Feb-16 03:01N 39°34' W 076°06'0 0.0
2018-Feb-16 02:30N 39°34' W 076°06'0 0.0
2018-Feb-16 02:00N 39°34' W 076°06'0 0.0
2018-Feb-16 01:31N 39°34' W 076°06'0 0.0
2018-Feb-15 23:06N 39°34' W 076°06'0 0.5
2018-Feb-15 23:00N 39°34' W 076°06'0 0.0
2018-Feb-15 22:24N 39°34' W 076°06'0 0.0
2018-Feb-15 22:00N 39°34' W 076°06'0 0.0
2018-Feb-15 21:30N 39°34' W 076°06'0 0.0
2018-Feb-15 21:00N 39°34' W 076°06'0 0.0
2018-Feb-15 20:30N 39°34' W 076°06'0 0.0
2018-Feb-15 20:01N 39°34' W 076°06'0 0.0
2018-Feb-15 19:30N 39°34' W 076°06'0 0.0
2018-Feb-15 19:00N 39°34' W 076°06'0 0.0
2018-Feb-15 18:30N 39°34' W 076°06'0 0.4
2018-Feb-15 18:00N 39°34' W 076°06'0 0.2
2018-Feb-15 17:31N 39°34' W 076°06'0 0.2
2018-Feb-15 17:01N 39°34' W 076°06'0 0.0
2018-Feb-15 16:06N 39°34' W 076°06'0 0.1
2018-Feb-15 16:01N 39°34' W 076°06'0 0.0
2018-Feb-15 15:14N 39°34' W 076°06'0 0.0
2018-Feb-15 15:00N 39°34' W 076°06'0 0.0
2018-Feb-15 14:21N 39°34' W 076°06'0 0.0
2018-Feb-15 14:01N 39°34' W 076°06'0 0.0
2018-Feb-15 13:30N 39°34' W 076°06'0 0.0
2018-Feb-15 13:00N 39°34' W 076°06'0 0.0
2018-Feb-15 12:30N 39°34' W 076°06'0 0.0
2018-Feb-15 11:59N 39°34' W 076°06'0 0.0
2018-Feb-15 11:30N 39°34' W 076°06'0 0.2
2018-Feb-15 11:00N 39°34' W 076°06'0 0.0
2018-Feb-15 10:31N 39°34' W 076°06'0 0.0
2018-Feb-15 10:00N 39°34' W 076°06'0 0.0
2018-Feb-15 09:28N 39°34' W 076°06'0 0.0
2018-Feb-15 08:49N 39°34' W 076°06'0 0.0
2018-Feb-15 08:28N 39°34' W 076°06'0 0.0
2018-Feb-15 07:55N 39°34' W 076°06'0 0.0
2018-Feb-15 07:28N 39°34' W 076°06'0 0.0
2018-Feb-15 07:00N 39°34' W 076°06'0 0.0
2018-Feb-15 06:30N 39°34' W 076°06'1 1.6
2018-Feb-15 06:00N 39°34' W 076°06'4 7.3
2018-Feb-15 05:30N 39°30' W 076°05'3 6.7
2018-Feb-15 05:01N 39°27' W 076°03'3 6.7
2018-Feb-15 04:30N 39°24' W 076°04'4 7.2
2018-Feb-15 04:00N 39°22' W 076°08'4 7.3
2018-Feb-15 03:30N 39°20' W 076°12'4 7.3
2018-Feb-15 02:58N 39°17' W 076°15'9 7.8
2018-Feb-15 01:48N 39°12' W 076°24'2 7.5
2018-Feb-15 01:31N 39°11' W 076°27'4 8.2
2018-Feb-15 01:00N 39°13' W 076°32'4 7.7
2018-Feb-15 00:30N 39°15' W 076°36'1 1.6
2018-Feb-15 00:00N 39°15' W 076°36'1 1.0
2018-Feb-14 23:30N 39°15' W 076°36'2 5.0
2018-Feb-14 23:00N 39°14' W 076°33'3 6.7
2018-Feb-14 22:30N 39°12' W 076°30'3 6.2
2018-Feb-14 22:00N 39°11' W 076°26'3 5.1
2018-Feb-14 21:29N 39°12' W 076°23'16 5.9
2018-Feb-14 18:46N 39°23' W 076°07'2 6.9
2018-Feb-14 18:29N 39°24' W 076°04'3 6.3
2018-Feb-14 18:00N 39°26' W 076°02'3 6.1
2018-Feb-14 17:30N 39°29' W 076°04'3 5.6
2018-Feb-14 17:01N 39°31' W 076°05'3 5.3
2018-Feb-14 16:29N 39°34' W 076°06'0 0.6
2018-Feb-14 16:00N 39°34' W 076°06'0 0.0
2018-Feb-14 15:31N 39°34' W 076°06'0 0.0
2018-Feb-14 15:00N 39°34' W 076°06'0 0.0
2018-Feb-14 14:30N 39°34' W 076°06'0 0.0
2018-Feb-14 14:00N 39°34' W 076°06'2 5.0
2018-Feb-14 13:30N 39°32' W 076°05'3 6.9
2018-Feb-14 13:00N 39°29' W 076°04'4 7.9
2018-Feb-14 12:30N 39°25' W 076°02'4 9.0
2018-Feb-14 12:00N 39°22' W 076°07'5 9.3
2018-Feb-14 11:28N 39°19' W 076°12'5 9.0
2018-Feb-14 10:57N 39°15' W 076°14'4 8.6
2018-Feb-14 10:30N 39°12' W 076°17'4 8.7
2018-Feb-14 10:00N 39°08' W 076°20'4 8.6
2018-Feb-14 09:31N 39°04' W 076°21'5 8.9
2018-Feb-14 09:00N 38°60' W 076°23'4 8.9
2018-Feb-14 08:31N 38°56' W 076°25'4 8.6
2018-Feb-14 08:00N 38°51' W 076°26'4 8.5
2018-Feb-14 07:29N 38°47' W 076°27'29 8.1
2018-Feb-14 03:57N 38°19' W 076°21'  
Track history (hours):
 
Tides and Currents Weather Stations Pressure Air Temp Water Temp Dewpoint Dewpoint Depression Visibility Wind Speed Wind Dir Waves Ship Positions

Capt. Ted

Owner: Salisbury Towing Corporation, Richmond, VA. More information available from US FCC via Universal Licensing System and Coast Guard Vessel Documentation Center.

Last reported at 2018-Feb-22 00:48 UTC. Time now 2018-Feb-24 19:33 UTC.
Position N 38°44' W 076°27'.

Length 32 m; draft 2.8 m.

Type: Tug. MMSI: 367169710.

Date/timePositionNaut miles runAvg speedWind from/ knotsBaromVisibWave heightAir tempDewpointWater temp
2018-Feb-22 00:48N 38°44' W 076°27'2 6.7
2018-Feb-22 00:26N 38°47' W 076°27'3 6.7
2018-Feb-22 00:00N 38°50' W 076°26'3 6.7
2018-Feb-21 23:30N 38°53' W 076°25'3 6.6
2018-Feb-21 23:01N 38°56' W 076°25'4 7.0
2018-Feb-21 22:30N 38°59' W 076°23'4 7.3
2018-Feb-21 22:00N 39°03' W 076°22'4 7.2
2018-Feb-21 21:30N 39°06' W 076°20'20 7.0
2018-Feb-21 18:41N 39°23' W 076°06'1 6.6
2018-Feb-21 18:29N 39°23' W 076°05'3 5.9
2018-Feb-21 18:01N 39°25' W 076°02'3 6.0
2018-Feb-21 17:30N 39°28' W 076°03'3 5.7
2018-Feb-21 17:00N 39°31' W 076°05'3 6.3
2018-Feb-21 16:28N 39°34' W 076°06'1 2.1
2018-Feb-21 16:00N 39°33' W 076°05'1 1.9
2018-Feb-21 15:26N 39°34' W 076°06'0 0.0
2018-Feb-21 15:00N 39°34' W 076°06'0 0.1
2018-Feb-21 14:31N 39°34' W 076°06'0 0.3
2018-Feb-21 14:01N 39°34' W 076°06'0 0.0
2018-Feb-21 13:30N 39°34' W 076°06'0 0.0
2018-Feb-21 13:00N 39°34' W 076°06'0 0.0
2018-Feb-21 12:30N 39°34' W 076°06'0 0.0
2018-Feb-21 12:01N 39°34' W 076°06'0 0.0
2018-Feb-21 11:28N 39°34' W 076°06'0 0.0
2018-Feb-21 11:00N 39°34' W 076°06'0 0.0
2018-Feb-21 10:30N 39°34' W 076°06'0 0.0
2018-Feb-21 10:01N 39°34' W 076°06'0 0.0
2018-Feb-21 09:31N 39°34' W 076°06'0 0.0
2018-Feb-21 09:01N 39°34' W 076°06'0 0.0
2018-Feb-21 08:31N 39°34' W 076°06'0 0.0
2018-Feb-21 08:00N 39°34' W 076°06'0 0.0
2018-Feb-21 07:30N 39°34' W 076°06'0 0.0
2018-Feb-21 07:00N 39°34' W 076°06'0 0.0
2018-Feb-21 06:31N 39°34' W 076°06'0 0.0
2018-Feb-21 06:00N 39°34' W 076°06'0 0.0
2018-Feb-21 05:30N 39°34' W 076°06'0 0.0
2018-Feb-21 05:01N 39°34' W 076°06'0 0.0
2018-Feb-21 04:30N 39°34' W 076°06'0 0.0
2018-Feb-21 04:00N 39°34' W 076°06'0 0.0
2018-Feb-21 03:31N 39°34' W 076°06'0 0.0
2018-Feb-21 03:00N 39°34' W 076°06'0 0.0
2018-Feb-21 02:31N 39°34' W 076°06'0 0.0
2018-Feb-21 01:59N 39°34' W 076°06'0 0.1
2018-Feb-21 01:31N 39°34' W 076°06'2 4.1
2018-Feb-21 01:00N 39°33' W 076°05'4 7.2
2018-Feb-21 00:31N 39°29' W 076°05'3 6.8
2018-Feb-21 00:00N 39°26' W 076°02'4 7.2
2018-Feb-20 23:30N 39°23' W 076°05'4 7.6
2018-Feb-20 23:00N 39°21' W 076°09'4 7.3
2018-Feb-20 22:31N 39°19' W 076°13'12 7.4
2018-Feb-20 20:51N 39°11' W 076°25'2 7.1
2018-Feb-20 20:30N 39°12' W 076°28'1 2.4
2018-Feb-20 20:00N 39°12' W 076°30'4 8.1
2018-Feb-20 19:30N 39°15' W 076°33'2 4.4
2018-Feb-20 19:01N 39°15' W 076°36'1 1.1
2018-Feb-20 18:30N 39°15' W 076°36'4 8.3
2018-Feb-20 18:00N 39°13' W 076°31'2 3.8
2018-Feb-20 17:30N 39°13' W 076°29'1 1.3
2018-Feb-20 17:00N 39°12' W 076°29'4 7.5
2018-Feb-20 16:30N 39°13' W 076°34'0 0.8
2018-Feb-20 16:00N 39°14' W 076°34'0 0.0
2018-Feb-20 15:30N 39°14' W 076°34'0 0.0
2018-Feb-20 15:01N 39°14' W 076°34'0 0.0
2018-Feb-20 14:30N 39°14' W 076°34'0 0.0
2018-Feb-20 14:00N 39°14' W 076°34'1 1.9
2018-Feb-20 13:31N 39°13' W 076°33'3 6.2
2018-Feb-20 13:00N 39°13' W 076°29'0 0.3
2018-Feb-20 12:30N 39°13' W 076°29'3 5.1
2018-Feb-20 12:00N 39°11' W 076°27'3 6.1
2018-Feb-20 11:31N 39°08' W 076°24'3 6.9
2018-Feb-20 11:00N 39°05' W 076°23'4 6.8
2018-Feb-20 10:29N 39°02' W 076°22'3 6.4
2018-Feb-20 10:00N 38°59' W 076°23'3 6.0
2018-Feb-20 09:30N 38°56' W 076°26'3 6.2
2018-Feb-20 09:00N 38°53' W 076°25'3 6.3
2018-Feb-20 08:30N 38°50' W 076°27'3 6.2
2018-Feb-20 08:00N 38°47' W 076°27'40 2.1
2018-Feb-19 13:14N 38°38' W 075°37'0 0.0
2018-Feb-19 12:55N 38°38' W 075°37'0 0.0
2018-Feb-19 12:30N 38°38' W 075°37'0 0.3
2018-Feb-19 11:51N 38°38' W 075°37'0 0.0
2018-Feb-19 11:30N 38°38' W 075°37'0 0.0
2018-Feb-19 10:16N 38°38' W 075°37'  
2018-Feb-17 03:04N 38°45' W 076°27'1 8.3
2018-Feb-17 03:00N 38°46' W 076°27'4 8.2
2018-Feb-17 02:31N 38°49' W 076°26'4 8.1
2018-Feb-17 02:00N 38°53' W 076°25'4 8.0
2018-Feb-17 01:30N 38°57' W 076°24'4 7.7
2018-Feb-17 01:00N 39°01' W 076°22'4 7.2
2018-Feb-17 00:30N 39°04' W 076°21'3 6.7
2018-Feb-17 00:00N 39°08' W 076°20'29 5.6
2018-Feb-16 18:54N 39°34' W 076°06'0 0.0
2018-Feb-16 18:30N 39°34' W 076°06'0 0.0
2018-Feb-16 18:00N 39°34' W 076°06'0 0.0
2018-Feb-16 17:30N 39°34' W 076°06'0 0.1
2018-Feb-16 17:00N 39°34' W 076°06'0 0.2
2018-Feb-16 16:30N 39°34' W 076°06'0 0.0
2018-Feb-16 16:00N 39°34' W 076°06'0 0.0
2018-Feb-16 15:30N 39°34' W 076°06'0 0.0
2018-Feb-16 15:00N 39°34' W 076°06'0 0.0
2018-Feb-16 14:30N 39°34' W 076°06'0 0.0
2018-Feb-16 14:00N 39°34' W 076°06'0 0.0
2018-Feb-16 13:31N 39°34' W 076°06'0 0.0
2018-Feb-16 13:00N 39°34' W 076°06'0 0.0
2018-Feb-16 12:31N 39°34' W 076°06'0 0.0
2018-Feb-16 12:00N 39°34' W 076°06'0 0.0
2018-Feb-16 11:31N 39°34' W 076°06'0 0.0
2018-Feb-16 11:01N 39°34' W 076°06'0 0.0
2018-Feb-16 10:31N 39°34' W 076°06'0 0.0
2018-Feb-16 10:00N 39°34' W 076°06'0 0.0
2018-Feb-16 09:31N 39°34' W 076°06'0 0.0
2018-Feb-16 08:59N 39°34' W 076°06'0 0.0
2018-Feb-16 08:30N 39°34' W 076°06'0 0.0
2018-Feb-16 08:00N 39°34' W 076°06'0 0.0
2018-Feb-16 07:30N 39°34' W 076°06'0 0.0
2018-Feb-16 07:01N 39°34' W 076°06'0 0.0
2018-Feb-16 06:31N 39°34' W 076°06'0 0.0
2018-Feb-16 06:00N 39°34' W 076°06'0 0.0
2018-Feb-16 05:30N 39°34' W 076°06'0 0.0
2018-Feb-16 05:01N 39°34' W 076°06'0 0.0
2018-Feb-16 04:30N 39°34' W 076°06'0 0.0
2018-Feb-16 04:01N 39°34' W 076°06'0 0.0
2018-Feb-16 03:31N 39°34' W 076°06'0 0.0
2018-Feb-16 03:01N 39°34' W 076°06'0 0.0
2018-Feb-16 02:30N 39°34' W 076°06'0 0.0
2018-Feb-16 02:00N 39°34' W 076°06'0 0.0
2018-Feb-16 01:31N 39°34' W 076°06'0 0.0
2018-Feb-15 23:06N 39°34' W 076°06'0 0.5
2018-Feb-15 23:00N 39°34' W 076°06'0 0.0
2018-Feb-15 22:24N 39°34' W 076°06'0 0.0
2018-Feb-15 22:00N 39°34' W 076°06'0 0.0
2018-Feb-15 21:30N 39°34' W 076°06'0 0.0
2018-Feb-15 21:00N 39°34' W 076°06'0 0.0
2018-Feb-15 20:30N 39°34' W 076°06'0 0.0
2018-Feb-15 20:01N 39°34' W 076°06'0 0.0
2018-Feb-15 19:30N 39°34' W 076°06'0 0.0
2018-Feb-15 19:00N 39°34' W 076°06'0 0.0
2018-Feb-15 18:30N 39°34' W 076°06'0 0.4
2018-Feb-15 18:00N 39°34' W 076°06'0 0.2
2018-Feb-15 17:31N 39°34' W 076°06'0 0.2
2018-Feb-15 17:01N 39°34' W 076°06'0 0.0
2018-Feb-15 16:06N 39°34' W 076°06'0 0.1
2018-Feb-15 16:01N 39°34' W 076°06'0 0.0
2018-Feb-15 15:14N 39°34' W 076°06'0 0.0
2018-Feb-15 15:00N 39°34' W 076°06'0 0.0
2018-Feb-15 14:21N 39°34' W 076°06'0 0.0
2018-Feb-15 14:01N 39°34' W 076°06'0 0.0
2018-Feb-15 13:30N 39°34' W 076°06'0 0.0
2018-Feb-15 13:00N 39°34' W 076°06'0 0.0
2018-Feb-15 12:30N 39°34' W 076°06'0 0.0
2018-Feb-15 11:59N 39°34' W 076°06'0 0.0
2018-Feb-15 11:30N 39°34' W 076°06'0 0.2
2018-Feb-15 11:00N 39°34' W 076°06'0 0.0
2018-Feb-15 10:31N 39°34' W 076°06'0 0.0
2018-Feb-15 10:00N 39°34' W 076°06'0 0.0
2018-Feb-15 09:28N 39°34' W 076°06'0 0.0
2018-Feb-15 08:49N 39°34' W 076°06'0 0.0
2018-Feb-15 08:28N 39°34' W 076°06'0 0.0
2018-Feb-15 07:55N 39°34' W 076°06'0 0.0
2018-Feb-15 07:28N 39°34' W 076°06'0 0.0
2018-Feb-15 07:00N 39°34' W 076°06'0 0.0
2018-Feb-15 06:30N 39°34' W 076°06'1 1.6
2018-Feb-15 06:00N 39°34' W 076°06'4 7.3
2018-Feb-15 05:30N 39°30' W 076°05'3 6.7
2018-Feb-15 05:01N 39°27' W 076°03'3 6.7
2018-Feb-15 04:30N 39°24' W 076°04'4 7.2
2018-Feb-15 04:00N 39°22' W 076°08'4 7.3
2018-Feb-15 03:30N 39°20' W 076°12'4 7.3
2018-Feb-15 02:58N 39°17' W 076°15'9 7.8
2018-Feb-15 01:48N 39°12' W 076°24'2 7.5
2018-Feb-15 01:31N 39°11' W 076°27'4 8.2
2018-Feb-15 01:00N 39°13' W 076°32'4 7.7
2018-Feb-15 00:30N 39°15' W 076°36'1 1.6
2018-Feb-15 00:00N 39°15' W 076°36'1 1.0
2018-Feb-14 23:30N 39°15' W 076°36'2 5.0
2018-Feb-14 23:00N 39°14' W 076°33'3 6.7
2018-Feb-14 22:30N 39°12' W 076°30'3 6.2
2018-Feb-14 22:00N 39°11' W 076°26'3 5.1
2018-Feb-14 21:29N 39°12' W 076°23'16 5.9
2018-Feb-14 18:46N 39°23' W 076°07'2 6.9
2018-Feb-14 18:29N 39°24' W 076°04'3 6.3
2018-Feb-14 18:00N 39°26' W 076°02'3 6.1
2018-Feb-14 17:30N 39°29' W 076°04'3 5.6
2018-Feb-14 17:01N 39°31' W 076°05'3 5.3
2018-Feb-14 16:29N 39°34' W 076°06'0 0.6
2018-Feb-14 16:00N 39°34' W 076°06'0 0.0
2018-Feb-14 15:31N 39°34' W 076°06'0 0.0
2018-Feb-14 15:00N 39°34' W 076°06'0 0.0
2018-Feb-14 14:30N 39°34' W 076°06'0 0.0
2018-Feb-14 14:00N 39°34' W 076°06'2 5.0
2018-Feb-14 13:30N 39°32' W 076°05'3 6.9
2018-Feb-14 13:00N 39°29' W 076°04'4 7.9
2018-Feb-14 12:30N 39°25' W 076°02'4 9.0
2018-Feb-14 12:00N 39°22' W 076°07'5 9.3
2018-Feb-14 11:28N 39°19' W 076°12'5 9.0
2018-Feb-14 10:57N 39°15' W 076°14'4 8.6
2018-Feb-14 10:30N 39°12' W 076°17'4 8.7
2018-Feb-14 10:00N 39°08' W 076°20'4 8.6
2018-Feb-14 09:31N 39°04' W 076°21'5 8.9
2018-Feb-14 09:00N 38°60' W 076°23'4 8.9
2018-Feb-14 08:31N 38°56' W 076°25'4 8.6
2018-Feb-14 08:00N 38°51' W 076°26'4 8.5
2018-Feb-14 07:29N 38°47' W 076°27'29 8.1
2018-Feb-14 03:57N 38°19' W 076°21'  

Dump ship's entire track history